sensor_id;sensor_type;location;lat;lon;timestamp;P1;durP1;ratioP1;P2;durP2;ratioP2
27013;SDS011;14556;52.222;4.510;2023-09-19T00:00:38;2.13;;;0.67;;
27013;SDS011;14556;52.222;4.510;2023-09-19T00:03:08;3.23;;;1.00;;
27013;SDS011;14556;52.222;4.510;2023-09-19T00:05:36;3.23;;;0.83;;
27013;SDS011;14556;52.222;4.510;2023-09-19T00:08:02;3.87;;;0.80;;
27013;SDS011;14556;52.222;4.510;2023-09-19T00:10:30;3.37;;;1.00;;
27013;SDS011;14556;52.222;4.510;2023-09-19T00:12:58;3.03;;;0.83;;
27013;SDS011;14556;52.222;4.510;2023-09-19T00:15:26;3.27;;;1.03;;
27013;SDS011;14556;52.222;4.510;2023-09-19T00:17:55;2.17;;;0.70;;
27013;SDS011;14556;52.222;4.510;2023-09-19T00:20:22;5.77;;;1.03;;
27013;SDS011;14556;52.222;4.510;2023-09-19T00:22:50;2.03;;;0.97;;
27013;SDS011;14556;52.222;4.510;2023-09-19T00:25:20;4.20;;;1.23;;
27013;SDS011;14556;52.222;4.510;2023-09-19T00:27:47;2.87;;;0.90;;
27013;SDS011;14556;52.222;4.510;2023-09-19T00:30:31;4.07;;;0.80;;
27013;SDS011;14556;52.222;4.510;2023-09-19T00:33:03;6.57;;;0.87;;
27013;SDS011;14556;52.222;4.510;2023-09-19T00:35:32;2.97;;;0.97;;
27013;SDS011;14556;52.222;4.510;2023-09-19T00:37:59;3.20;;;0.77;;
27013;SDS011;14556;52.222;4.510;2023-09-19T00:40:26;4.53;;;1.17;;
27013;SDS011;14556;52.222;4.510;2023-09-19T00:42:52;2.43;;;1.00;;
27013;SDS011;14556;52.222;4.510;2023-09-19T00:45:24;4.47;;;0.83;;
27013;SDS011;14556;52.222;4.510;2023-09-19T00:47:53;2.43;;;1.00;;
27013;SDS011;14556;52.222;4.510;2023-09-19T00:50:25;5.53;;;1.00;;
27013;SDS011;14556;52.222;4.510;2023-09-19T00:52:54;4.03;;;0.80;;
27013;SDS011;14556;52.222;4.510;2023-09-19T00:55:24;3.70;;;0.80;;
27013;SDS011;14556;52.222;4.510;2023-09-19T00:57:51;6.23;;;1.20;;
27013;SDS011;14556;52.222;4.510;2023-09-19T01:00:17;3.93;;;0.90;;
27013;SDS011;14556;52.222;4.510;2023-09-19T01:02:46;2.43;;;0.87;;
27013;SDS011;14556;52.222;4.510;2023-09-19T01:05:13;4.60;;;1.20;;
27013;SDS011;14556;52.222;4.510;2023-09-19T01:07:40;8.33;;;1.27;;
27013;SDS011;14556;52.222;4.510;2023-09-19T01:10:11;5.53;;;1.00;;
27013;SDS011;14556;52.222;4.510;2023-09-19T01:15:11;2.07;;;0.90;;
27013;SDS011;14556;52.222;4.510;2023-09-19T01:17:53;4.57;;;1.33;;
27013;SDS011;14556;52.222;4.510;2023-09-19T01:20:39;2.20;;;0.67;;
27013;SDS011;14556;52.222;4.510;2023-09-19T01:23:18;3.50;;;0.83;;
27013;SDS011;14556;52.222;4.510;2023-09-19T01:31:13;3.90;;;1.03;;
27013;SDS011;14556;52.222;4.510;2023-09-19T01:36:34;5.93;;;1.20;;
27013;SDS011;14556;52.222;4.510;2023-09-19T01:39:04;6.83;;;0.93;;
27013;SDS011;14556;52.222;4.510;2023-09-19T01:41:45;3.73;;;0.90;;
27013;SDS011;14556;52.222;4.510;2023-09-19T01:44:15;6.57;;;1.67;;
27013;SDS011;14556;52.222;4.510;2023-09-19T01:46:44;7.23;;;1.70;;
27013;SDS011;14556;52.222;4.510;2023-09-19T01:49:27;5.10;;;1.03;;
27013;SDS011;14556;52.222;4.510;2023-09-19T01:52:11;4.70;;;1.00;;
27013;SDS011;14556;52.222;4.510;2023-09-19T01:54:48;3.37;;;0.90;;
27013;SDS011;14556;52.222;4.510;2023-09-19T01:59:43;4.73;;;1.13;;
27013;SDS011;14556;52.222;4.510;2023-09-19T02:02:11;12.43;;;1.10;;
27013;SDS011;14556;52.222;4.510;2023-09-19T02:04:38;5.00;;;1.03;;
27013;SDS011;14556;52.222;4.510;2023-09-19T02:07:05;3.47;;;1.17;;
27013;SDS011;14556;52.222;4.510;2023-09-19T02:09:32;4.33;;;0.83;;
27013;SDS011;14556;52.222;4.510;2023-09-19T02:12:02;3.33;;;0.67;;
27013;SDS011;14556;52.222;4.510;2023-09-19T02:14:30;7.33;;;1.20;;
27013;SDS011;14556;52.222;4.510;2023-09-19T02:16:56;3.47;;;1.03;;
27013;SDS011;14556;52.222;4.510;2023-09-19T02:19:24;6.07;;;1.13;;
27013;SDS011;14556;52.222;4.510;2023-09-19T02:21:51;5.90;;;0.93;;
27013;SDS011;14556;52.222;4.510;2023-09-19T02:24:18;4.10;;;0.90;;
27013;SDS011;14556;52.222;4.510;2023-09-19T02:26:46;4.67;;;0.97;;
27013;SDS011;14556;52.222;4.510;2023-09-19T02:29:13;8.70;;;1.40;;
27013;SDS011;14556;52.222;4.510;2023-09-19T02:31:40;6.00;;;1.30;;
27013;SDS011;14556;52.222;4.510;2023-09-19T02:34:07;4.83;;;1.00;;
27013;SDS011;14556;52.222;4.510;2023-09-19T02:36:36;4.07;;;1.03;;
27013;SDS011;14556;52.222;4.510;2023-09-19T02:39:02;5.23;;;1.00;;
27013;SDS011;14556;52.222;4.510;2023-09-19T02:41:33;7.17;;;1.03;;
27013;SDS011;14556;52.222;4.510;2023-09-19T02:44:01;5.47;;;1.30;;
27013;SDS011;14556;52.222;4.510;2023-09-19T02:46:28;3.73;;;1.20;;
27013;SDS011;14556;52.222;4.510;2023-09-19T02:48:55;4.00;;;1.03;;
27013;SDS011;14556;52.222;4.510;2023-09-19T02:51:22;2.80;;;0.83;;
27013;SDS011;14556;52.222;4.510;2023-09-19T02:53:49;3.47;;;1.10;;
27013;SDS011;14556;52.222;4.510;2023-09-19T02:56:19;5.50;;;1.33;;
27013;SDS011;14556;52.222;4.510;2023-09-19T02:58:46;1.70;;;0.83;;
27013;SDS011;14556;52.222;4.510;2023-09-19T03:01:14;4.83;;;1.27;;
27013;SDS011;14556;52.222;4.510;2023-09-19T03:03:41;5.90;;;1.10;;
27013;SDS011;14556;52.222;4.510;2023-09-19T03:06:08;3.30;;;0.80;;
27013;SDS011;14556;52.222;4.510;2023-09-19T03:08:35;3.23;;;0.80;;
27013;SDS011;14556;52.222;4.510;2023-09-19T03:11:03;3.77;;;0.77;;
27013;SDS011;14556;52.222;4.510;2023-09-19T03:13:32;3.10;;;0.90;;
27013;SDS011;14556;52.222;4.510;2023-09-19T03:16:00;3.50;;;0.83;;
27013;SDS011;14556;52.222;4.510;2023-09-19T03:18:28;6.13;;;1.37;;
27013;SDS011;14556;52.222;4.510;2023-09-19T03:20:55;6.17;;;0.90;;
27013;SDS011;14556;52.222;4.510;2023-09-19T03:23:24;1.83;;;0.87;;
27013;SDS011;14556;52.222;4.510;2023-09-19T03:25:54;6.63;;;0.77;;
27013;SDS011;14556;52.222;4.510;2023-09-19T03:28:21;2.93;;;0.60;;
27013;SDS011;14556;52.222;4.510;2023-09-19T03:31:01;1.97;;;0.80;;
27013;SDS011;14556;52.222;4.510;2023-09-19T03:33:28;2.03;;;0.97;;
27013;SDS011;14556;52.222;4.510;2023-09-19T03:35:54;3.60;;;0.80;;
27013;SDS011;14556;52.222;4.510;2023-09-19T03:38:33;3.10;;;0.87;;
27013;SDS011;14556;52.222;4.510;2023-09-19T03:41:04;4.17;;;1.00;;
27013;SDS011;14556;52.222;4.510;2023-09-19T03:43:32;3.93;;;0.80;;
27013;SDS011;14556;52.222;4.510;2023-09-19T03:46:02;1.70;;;0.70;;
27013;SDS011;14556;52.222;4.510;2023-09-19T03:48:30;6.20;;;1.00;;
27013;SDS011;14556;52.222;4.510;2023-09-19T03:50:58;2.27;;;0.67;;
27013;SDS011;14556;52.222;4.510;2023-09-19T03:53:25;2.23;;;0.67;;
27013;SDS011;14556;52.222;4.510;2023-09-19T03:55:52;2.97;;;0.80;;
27013;SDS011;14556;52.222;4.510;2023-09-19T03:58:19;2.13;;;0.90;;
27013;SDS011;14556;52.222;4.510;2023-09-19T04:00:47;7.90;;;0.90;;
27013;SDS011;14556;52.222;4.510;2023-09-19T04:03:14;2.80;;;1.00;;
27013;SDS011;14556;52.222;4.510;2023-09-19T04:05:46;1.93;;;0.90;;
27013;SDS011;14556;52.222;4.510;2023-09-19T04:08:13;3.00;;;1.10;;
27013;SDS011;14556;52.222;4.510;2023-09-19T04:10:43;4.97;;;1.10;;
27013;SDS011;14556;52.222;4.510;2023-09-19T04:13:10;4.87;;;0.97;;
27013;SDS011;14556;52.222;4.510;2023-09-19T04:15:37;1.53;;;0.60;;
27013;SDS011;14556;52.222;4.510;2023-09-19T04:18:06;4.97;;;1.07;;
27013;SDS011;14556;52.222;4.510;2023-09-19T04:20:35;3.93;;;1.00;;
27013;SDS011;14556;52.222;4.510;2023-09-19T04:23:01;2.63;;;0.80;;
27013;SDS011;14556;52.222;4.510;2023-09-19T04:25:28;5.83;;;1.10;;
27013;SDS011;14556;52.222;4.510;2023-09-19T04:27:55;3.00;;;0.60;;
27013;SDS011;14556;52.222;4.510;2023-09-19T04:30:22;1.57;;;0.80;;
27013;SDS011;14556;52.222;4.510;2023-09-19T04:32:49;2.60;;;0.73;;
27013;SDS011;14556;52.222;4.510;2023-09-19T04:35:17;4.93;;;0.80;;
27013;SDS011;14556;52.222;4.510;2023-09-19T04:37:45;3.67;;;0.80;;
27013;SDS011;14556;52.222;4.510;2023-09-19T04:40:11;5.07;;;0.90;;
27013;SDS011;14556;52.222;4.510;2023-09-19T04:42:53;4.30;;;1.10;;
27013;SDS011;14556;52.222;4.510;2023-09-19T04:45:30;5.67;;;1.10;;
27013;SDS011;14556;52.222;4.510;2023-09-19T04:47:56;2.67;;;0.97;;
27013;SDS011;14556;52.222;4.510;2023-09-19T04:50:23;3.37;;;0.70;;
27013;SDS011;14556;52.222;4.510;2023-09-19T04:53:00;4.40;;;0.73;;
27013;SDS011;14556;52.222;4.510;2023-09-19T04:55:27;6.33;;;2.03;;
27013;SDS011;14556;52.222;4.510;2023-09-19T04:57:54;4.90;;;1.03;;
27013;SDS011;14556;52.222;4.510;2023-09-19T05:00:22;2.63;;;0.93;;
27013;SDS011;14556;52.222;4.510;2023-09-19T05:02:54;3.23;;;0.70;;
27013;SDS011;14556;52.222;4.510;2023-09-19T05:05:23;5.00;;;1.03;;
27013;SDS011;14556;52.222;4.510;2023-09-19T05:07:52;5.90;;;1.63;;
27013;SDS011;14556;52.222;4.510;2023-09-19T05:10:20;4.00;;;0.73;;
27013;SDS011;14556;52.222;4.510;2023-09-19T05:12:48;4.03;;;1.10;;
27013;SDS011;14556;52.222;4.510;2023-09-19T05:15:17;1.73;;;1.20;;
27013;SDS011;14556;52.222;4.510;2023-09-19T05:17:50;4.03;;;0.97;;
27013;SDS011;14556;52.222;4.510;2023-09-19T05:20:22;6.07;;;1.17;;
27013;SDS011;14556;52.222;4.510;2023-09-19T05:23:08;3.17;;;0.80;;
27013;SDS011;14556;52.222;4.510;2023-09-19T05:25:36;3.77;;;0.83;;
27013;SDS011;14556;52.222;4.510;2023-09-19T05:28:06;4.33;;;0.73;;
27013;SDS011;14556;52.222;4.510;2023-09-19T05:30:34;4.37;;;1.17;;
27013;SDS011;14556;52.222;4.510;2023-09-19T05:33:03;7.37;;;0.80;;
27013;SDS011;14556;52.222;4.510;2023-09-19T05:35:31;4.33;;;1.00;;
27013;SDS011;14556;52.222;4.510;2023-09-19T05:37:59;3.70;;;0.90;;
27013;SDS011;14556;52.222;4.510;2023-09-19T05:40:26;5.67;;;1.43;;
27013;SDS011;14556;52.222;4.510;2023-09-19T05:42:54;4.40;;;1.03;;
27013;SDS011;14556;52.222;4.510;2023-09-19T05:45:21;5.23;;;1.07;;
27013;SDS011;14556;52.222;4.510;2023-09-19T05:47:51;3.37;;;1.07;;
27013;SDS011;14556;52.222;4.510;2023-09-19T05:50:20;6.13;;;1.00;;
27013;SDS011;14556;52.222;4.510;2023-09-19T05:52:53;4.87;;;1.07;;
27013;SDS011;14556;52.222;4.510;2023-09-19T05:55:20;6.87;;;1.23;;
27013;SDS011;14556;52.222;4.510;2023-09-19T05:57:51;4.27;;;1.27;;
27013;SDS011;14556;52.222;4.510;2023-09-19T06:00:20;4.50;;;1.13;;
27013;SDS011;14556;52.222;4.510;2023-09-19T06:02:55;2.77;;;0.90;;
27013;SDS011;14556;52.222;4.510;2023-09-19T06:05:21;3.97;;;1.37;;
27013;SDS011;14556;52.222;4.510;2023-09-19T06:07:52;2.60;;;0.90;;
27013;SDS011;14556;52.222;4.510;2023-09-19T06:10:19;3.63;;;1.43;;
27013;SDS011;14556;52.222;4.510;2023-09-19T06:12:49;6.43;;;1.20;;
27013;SDS011;14556;52.222;4.510;2023-09-19T06:15:16;8.00;;;1.20;;
27013;SDS011;14556;52.222;4.510;2023-09-19T06:17:46;3.60;;;1.50;;
27013;SDS011;14556;52.222;4.510;2023-09-19T06:20:13;5.90;;;1.40;;
27013;SDS011;14556;52.222;4.510;2023-09-19T06:22:43;4.77;;;1.03;;
27013;SDS011;14556;52.222;4.510;2023-09-19T06:25:13;6.90;;;1.07;;
27013;SDS011;14556;52.222;4.510;2023-09-19T06:27:46;5.13;;;1.27;;
27013;SDS011;14556;52.222;4.510;2023-09-19T06:30:15;7.53;;;1.33;;
27013;SDS011;14556;52.222;4.510;2023-09-19T06:32:42;8.23;;;1.53;;
27013;SDS011;14556;52.222;4.510;2023-09-19T06:35:14;6.70;;;1.33;;
27013;SDS011;14556;52.222;4.510;2023-09-19T06:37:41;5.10;;;1.77;;
27013;SDS011;14556;52.222;4.510;2023-09-19T06:40:08;9.27;;;1.33;;
27013;SDS011;14556;52.222;4.510;2023-09-19T06:42:43;2.30;;;0.80;;
27013;SDS011;14556;52.222;4.510;2023-09-19T06:45:12;6.77;;;1.53;;
27013;SDS011;14556;52.222;4.510;2023-09-19T06:47:40;3.50;;;1.00;;
27013;SDS011;14556;52.222;4.510;2023-09-19T06:50:07;4.90;;;1.03;;
27013;SDS011;14556;52.222;4.510;2023-09-19T06:52:42;6.13;;;1.13;;
27013;SDS011;14556;52.222;4.510;2023-09-19T06:55:08;9.07;;;1.60;;
27013;SDS011;14556;52.222;4.510;2023-09-19T06:57:38;3.57;;;1.10;;
27013;SDS011;14556;52.222;4.510;2023-09-19T07:00:05;7.70;;;1.50;;
27013;SDS011;14556;52.222;4.510;2023-09-19T07:02:35;6.13;;;1.40;;
27013;SDS011;14556;52.222;4.510;2023-09-19T07:05:02;6.33;;;1.90;;
27013;SDS011;14556;52.222;4.510;2023-09-19T07:07:28;9.30;;;1.53;;
27013;SDS011;14556;52.222;4.510;2023-09-19T07:09:55;6.17;;;1.20;;
27013;SDS011;14556;52.222;4.510;2023-09-19T07:12:23;11.00;;;2.40;;
27013;SDS011;14556;52.222;4.510;2023-09-19T07:14:49;8.60;;;1.73;;
27013;SDS011;14556;52.222;4.510;2023-09-19T07:17:16;3.63;;;1.00;;
27013;SDS011;14556;52.222;4.510;2023-09-19T07:19:45;6.77;;;1.77;;
27013;SDS011;14556;52.222;4.510;2023-09-19T07:22:11;3.17;;;1.20;;
27013;SDS011;14556;52.222;4.510;2023-09-19T07:24:38;8.87;;;1.20;;
27013;SDS011;14556;52.222;4.510;2023-09-19T07:27:04;7.20;;;1.33;;
27013;SDS011;14556;52.222;4.510;2023-09-19T07:29:31;7.50;;;1.30;;
27013;SDS011;14556;52.222;4.510;2023-09-19T07:31:58;7.80;;;1.20;;
27013;SDS011;14556;52.222;4.510;2023-09-19T07:34:25;8.13;;;1.40;;
27013;SDS011;14556;52.222;4.510;2023-09-19T07:36:51;6.10;;;1.10;;
27013;SDS011;14556;52.222;4.510;2023-09-19T07:39:17;5.27;;;1.63;;
27013;SDS011;14556;52.222;4.510;2023-09-19T07:41:49;3.83;;;0.90;;
27013;SDS011;14556;52.222;4.510;2023-09-19T07:44:16;8.23;;;1.33;;
27013;SDS011;14556;52.222;4.510;2023-09-19T07:46:43;11.27;;;1.60;;
27013;SDS011;14556;52.222;4.510;2023-09-19T07:49:10;4.37;;;1.23;;
27013;SDS011;14556;52.222;4.510;2023-09-19T07:51:37;5.67;;;1.20;;
27013;SDS011;14556;52.222;4.510;2023-09-19T07:54:05;6.07;;;1.30;;
27013;SDS011;14556;52.222;4.510;2023-09-19T07:56:31;2.97;;;1.23;;
27013;SDS011;14556;52.222;4.510;2023-09-19T07:58:58;2.43;;;0.90;;
27013;SDS011;14556;52.222;4.510;2023-09-19T08:01:27;6.40;;;1.60;;
27013;SDS011;14556;52.222;4.510;2023-09-19T08:03:54;6.47;;;1.23;;
27013;SDS011;14556;52.222;4.510;2023-09-19T08:06:20;6.13;;;1.17;;
27013;SDS011;14556;52.222;4.510;2023-09-19T08:08:50;5.53;;;1.67;;
27013;SDS011;14556;52.222;4.510;2023-09-19T08:11:16;4.30;;;1.30;;
27013;SDS011;14556;52.222;4.510;2023-09-19T08:13:48;5.77;;;1.43;;
27013;SDS011;14556;52.222;4.510;2023-09-19T08:16:15;6.33;;;1.30;;
27013;SDS011;14556;52.222;4.510;2023-09-19T08:18:42;5.30;;;1.10;;
27013;SDS011;14556;52.222;4.510;2023-09-19T08:21:11;7.07;;;1.20;;
27013;SDS011;14556;52.222;4.510;2023-09-19T08:23:38;7.50;;;1.73;;
27013;SDS011;14556;52.222;4.510;2023-09-19T08:26:05;6.77;;;1.20;;
27013;SDS011;14556;52.222;4.510;2023-09-19T08:28:35;3.50;;;1.30;;
27013;SDS011;14556;52.222;4.510;2023-09-19T08:31:02;4.57;;;1.63;;
27013;SDS011;14556;52.222;4.510;2023-09-19T08:33:33;3.77;;;1.40;;
27013;SDS011;14556;52.222;4.510;2023-09-19T08:36:00;6.23;;;1.50;;
27013;SDS011;14556;52.222;4.510;2023-09-19T08:38:26;8.30;;;1.20;;
27013;SDS011;14556;52.222;4.510;2023-09-19T08:40:58;4.50;;;1.73;;
27013;SDS011;14556;52.222;4.510;2023-09-19T08:43:28;8.00;;;1.30;;
27013;SDS011;14556;52.222;4.510;2023-09-19T08:45:58;5.77;;;1.80;;
27013;SDS011;14556;52.222;4.510;2023-09-19T08:48:29;5.87;;;1.43;;
27013;SDS011;14556;52.222;4.510;2023-09-19T08:50:57;3.60;;;1.23;;
27013;SDS011;14556;52.222;4.510;2023-09-19T08:56:13;6.33;;;1.33;;
27013;SDS011;14556;52.222;4.510;2023-09-19T08:58:44;5.87;;;1.17;;
27013;SDS011;14556;52.222;4.510;2023-09-19T09:01:12;5.43;;;1.47;;
27013;SDS011;14556;52.222;4.510;2023-09-19T09:03:40;4.13;;;1.63;;
27013;SDS011;14556;52.222;4.510;2023-09-19T09:06:13;5.10;;;1.37;;
27013;SDS011;14556;52.222;4.510;2023-09-19T09:08:42;4.10;;;1.20;;
27013;SDS011;14556;52.222;4.510;2023-09-19T09:11:09;9.30;;;1.70;;
27013;SDS011;14556;52.222;4.510;2023-09-19T09:13:39;2.83;;;1.17;;
27013;SDS011;14556;52.222;4.510;2023-09-19T09:16:07;5.37;;;1.50;;
27013;SDS011;14556;52.222;4.510;2023-09-19T09:18:35;5.13;;;1.47;;
27013;SDS011;14556;52.222;4.510;2023-09-19T09:21:02;5.80;;;1.37;;
27013;SDS011;14556;52.222;4.510;2023-09-19T09:23:31;6.07;;;1.70;;
27013;SDS011;14556;52.222;4.510;2023-09-19T09:25:59;4.60;;;1.53;;
27013;SDS011;14556;52.222;4.510;2023-09-19T09:28:30;7.10;;;1.40;;
27013;SDS011;14556;52.222;4.510;2023-09-19T09:30:57;7.83;;;2.10;;
27013;SDS011;14556;52.222;4.510;2023-09-19T09:33:24;6.43;;;1.57;;
27013;SDS011;14556;52.222;4.510;2023-09-19T09:35:55;7.80;;;1.50;;
27013;SDS011;14556;52.222;4.510;2023-09-19T09:38:30;7.60;;;1.30;;
27013;SDS011;14556;52.222;4.510;2023-09-19T09:41:00;8.03;;;2.07;;
27013;SDS011;14556;52.222;4.510;2023-09-19T09:43:34;8.13;;;1.73;;
27013;SDS011;14556;52.222;4.510;2023-09-19T09:46:06;7.47;;;1.90;;
27013;SDS011;14556;52.222;4.510;2023-09-19T09:51:48;9.60;;;1.70;;
27013;SDS011;14556;52.222;4.510;2023-09-19T09:54:24;3.70;;;1.40;;
27013;SDS011;14556;52.222;4.510;2023-09-19T09:56:57;3.80;;;1.20;;
27013;SDS011;14556;52.222;4.510;2023-09-19T09:59:44;5.67;;;1.10;;
27013;SDS011;14556;52.222;4.510;2023-09-19T10:02:13;3.90;;;1.50;;
27013;SDS011;14556;52.222;4.510;2023-09-19T10:04:40;6.07;;;1.20;;
27013;SDS011;14556;52.222;4.510;2023-09-19T10:09:54;3.53;;;1.20;;
27013;SDS011;14556;52.222;4.510;2023-09-19T10:12:28;4.83;;;1.00;;
27013;SDS011;14556;52.222;4.510;2023-09-19T10:14:55;4.80;;;1.30;;
27013;SDS011;14556;52.222;4.510;2023-09-19T10:17:24;4.80;;;1.37;;
27013;SDS011;14556;52.222;4.510;2023-09-19T10:19:55;8.23;;;1.20;;
27013;SDS011;14556;52.222;4.510;2023-09-19T10:22:33;7.37;;;1.53;;
27013;SDS011;14556;52.222;4.510;2023-09-19T10:25:02;6.17;;;1.50;;
27013;SDS011;14556;52.222;4.510;2023-09-19T10:27:31;5.50;;;1.60;;
27013;SDS011;14556;52.222;4.510;2023-09-19T10:30:06;3.10;;;1.30;;
27013;SDS011;14556;52.222;4.510;2023-09-19T10:32:59;6.17;;;1.30;;
27013;SDS011;14556;52.222;4.510;2023-09-19T10:35:26;6.90;;;1.07;;
27013;SDS011;14556;52.222;4.510;2023-09-19T10:37:54;2.70;;;0.90;;
27013;SDS011;14556;52.222;4.510;2023-09-19T10:40:21;4.50;;;1.13;;
27013;SDS011;14556;52.222;4.510;2023-09-19T10:42:52;4.23;;;1.10;;
27013;SDS011;14556;52.222;4.510;2023-09-19T10:45:20;4.50;;;1.07;;
27013;SDS011;14556;52.222;4.510;2023-09-19T10:47:50;9.10;;;1.80;;
27013;SDS011;14556;52.222;4.510;2023-09-19T10:50:20;4.43;;;1.10;;
27013;SDS011;14556;52.222;4.510;2023-09-19T10:52:50;8.80;;;1.60;;
27013;SDS011;14556;52.222;4.510;2023-09-19T10:55:25;7.53;;;1.50;;
27013;SDS011;14556;52.222;4.510;2023-09-19T10:57:58;8.57;;;1.27;;
27013;SDS011;14556;52.222;4.510;2023-09-19T11:00:53;4.17;;;1.37;;
27013;SDS011;14556;52.222;4.510;2023-09-19T11:03:27;6.30;;;1.17;;
27013;SDS011;14556;52.222;4.510;2023-09-19T11:06:04;4.63;;;0.80;;
27013;SDS011;14556;52.222;4.510;2023-09-19T11:22:28;5.00;;;1.13;;
27013;SDS011;14556;52.222;4.510;2023-09-19T11:30:50;3.47;;;1.13;;
27013;SDS011;14556;52.222;4.510;2023-09-19T11:43:52;5.17;;;1.03;;
27013;SDS011;14556;52.222;4.510;2023-09-19T11:46:23;2.17;;;0.83;;
27013;SDS011;14556;52.222;4.510;2023-09-19T11:48:50;4.97;;;1.13;;
27013;SDS011;14556;52.222;4.510;2023-09-19T11:51:23;4.37;;;1.00;;
27013;SDS011;14556;52.222;4.510;2023-09-19T11:53:54;4.77;;;0.93;;
27013;SDS011;14556;52.222;4.510;2023-09-19T11:56:21;2.80;;;0.77;;
27013;SDS011;14556;52.222;4.510;2023-09-19T11:58:52;4.93;;;1.00;;
27013;SDS011;14556;52.222;4.510;2023-09-19T12:01:31;3.63;;;0.80;;
27013;SDS011;14556;52.222;4.510;2023-09-19T12:03:59;5.03;;;0.90;;
27013;SDS011;14556;52.222;4.510;2023-09-19T12:06:31;4.07;;;0.90;;
27013;SDS011;14556;52.222;4.510;2023-09-19T12:09:01;3.33;;;1.00;;
27013;SDS011;14556;52.222;4.510;2023-09-19T12:11:33;3.17;;;1.07;;
27013;SDS011;14556;52.222;4.510;2023-09-19T12:14:08;4.90;;;1.10;;
27013;SDS011;14556;52.222;4.510;2023-09-19T12:16:35;2.47;;;0.97;;
27013;SDS011;14556;52.222;4.510;2023-09-19T12:19:18;1.70;;;0.87;;
27013;SDS011;14556;52.222;4.510;2023-09-19T12:21:59;1.70;;;0.83;;
27013;SDS011;14556;52.222;4.510;2023-09-19T12:24:30;5.97;;;1.30;;
27013;SDS011;14556;52.222;4.510;2023-09-19T12:27:01;2.97;;;1.20;;
27013;SDS011;14556;52.222;4.510;2023-09-19T12:29:27;2.80;;;1.20;;
27013;SDS011;14556;52.222;4.510;2023-09-19T12:31:56;3.43;;;1.00;;
27013;SDS011;14556;52.222;4.510;2023-09-19T12:34:30;1.30;;;1.07;;
27013;SDS011;14556;52.222;4.510;2023-09-19T12:37:07;3.47;;;1.30;;
27013;SDS011;14556;52.222;4.510;2023-09-19T12:39:54;8.17;;;1.47;;
27013;SDS011;14556;52.222;4.510;2023-09-19T12:42:46;4.37;;;1.37;;
27013;SDS011;14556;52.222;4.510;2023-09-19T12:45:15;4.03;;;1.17;;
27013;SDS011;14556;52.222;4.510;2023-09-19T12:50:30;7.67;;;1.60;;
27013;SDS011;14556;52.222;4.510;2023-09-19T12:53:02;3.07;;;1.23;;
27013;SDS011;14556;52.222;4.510;2023-09-19T12:55:29;6.03;;;1.23;;
27013;SDS011;14556;52.222;4.510;2023-09-19T12:58:07;4.10;;;1.50;;
27013;SDS011;14556;52.222;4.510;2023-09-19T13:00:36;4.10;;;1.47;;
27013;SDS011;14556;52.222;4.510;2023-09-19T13:03:37;4.80;;;1.40;;
27013;SDS011;14556;52.222;4.510;2023-09-19T13:06:03;2.43;;;1.27;;
27013;SDS011;14556;52.222;4.510;2023-09-19T13:08:31;2.53;;;1.20;;
27013;SDS011;14556;52.222;4.510;2023-09-19T13:11:09;4.03;;;1.23;;
27013;SDS011;14556;52.222;4.510;2023-09-19T13:13:44;4.90;;;1.47;;
27013;SDS011;14556;52.222;4.510;2023-09-19T13:16:16;3.57;;;1.33;;
27013;SDS011;14556;52.222;4.510;2023-09-19T13:18:50;4.03;;;1.07;;
27013;SDS011;14556;52.222;4.510;2023-09-19T13:21:32;1.97;;;1.10;;
27013;SDS011;14556;52.222;4.510;2023-09-19T13:24:20;4.50;;;1.50;;
27013;SDS011;14556;52.222;4.510;2023-09-19T13:26:47;3.47;;;1.27;;
27013;SDS011;14556;52.222;4.510;2023-09-19T13:29:15;5.93;;;1.20;;
27013;SDS011;14556;52.222;4.510;2023-09-19T13:31:51;3.20;;;0.93;;
27013;SDS011;14556;52.222;4.510;2023-09-19T13:34:19;8.83;;;2.03;;
27013;SDS011;14556;52.222;4.510;2023-09-19T13:36:46;7.17;;;1.63;;
27013;SDS011;14556;52.222;4.510;2023-09-19T13:39:16;3.97;;;1.20;;
27013;SDS011;14556;52.222;4.510;2023-09-19T13:41:47;4.30;;;1.50;;
27013;SDS011;14556;52.222;4.510;2023-09-19T13:44:13;6.70;;;1.37;;
27013;SDS011;14556;52.222;4.510;2023-09-19T13:46:40;4.90;;;1.47;;
27013;SDS011;14556;52.222;4.510;2023-09-19T13:49:10;3.30;;;1.03;;
27013;SDS011;14556;52.222;4.510;2023-09-19T13:51:37;3.33;;;1.10;;
27013;SDS011;14556;52.222;4.510;2023-09-19T13:54:04;9.10;;;1.63;;
27013;SDS011;14556;52.222;4.510;2023-09-19T13:56:32;14.13;;;1.60;;
27013;SDS011;14556;52.222;4.510;2023-09-19T13:58:59;5.67;;;1.60;;
27013;SDS011;14556;52.222;4.510;2023-09-19T14:01:27;6.83;;;1.47;;
27013;SDS011;14556;52.222;4.510;2023-09-19T14:03:53;7.60;;;1.70;;
27013;SDS011;14556;52.222;4.510;2023-09-19T14:06:22;7.07;;;1.60;;
27013;SDS011;14556;52.222;4.510;2023-09-19T14:08:48;9.70;;;2.27;;
27013;SDS011;14556;52.222;4.510;2023-09-19T14:11:17;10.00;;;1.53;;
27013;SDS011;14556;52.222;4.510;2023-09-19T14:13:46;4.57;;;1.60;;
27013;SDS011;14556;52.222;4.510;2023-09-19T14:16:16;5.17;;;1.87;;
27013;SDS011;14556;52.222;4.510;2023-09-19T14:18:44;6.97;;;2.10;;
27013;SDS011;14556;52.222;4.510;2023-09-19T14:21:10;11.20;;;2.10;;
27013;SDS011;14556;52.222;4.510;2023-09-19T14:23:37;6.90;;;1.93;;
27013;SDS011;14556;52.222;4.510;2023-09-19T14:26:04;6.20;;;2.20;;
27013;SDS011;14556;52.222;4.510;2023-09-19T14:28:34;8.23;;;2.00;;
27013;SDS011;14556;52.222;4.510;2023-09-19T14:31:10;6.63;;;2.07;;
27013;SDS011;14556;52.222;4.510;2023-09-19T14:33:37;4.67;;;1.67;;
27013;SDS011;14556;52.222;4.510;2023-09-19T14:36:05;8.63;;;2.27;;
27013;SDS011;14556;52.222;4.510;2023-09-19T14:38:33;7.83;;;2.07;;
27013;SDS011;14556;52.222;4.510;2023-09-19T14:41:03;5.80;;;1.60;;
27013;SDS011;14556;52.222;4.510;2023-09-19T14:43:30;4.70;;;1.67;;
27013;SDS011;14556;52.222;4.510;2023-09-19T14:45:56;8.37;;;2.53;;
27013;SDS011;14556;52.222;4.510;2023-09-19T14:48:26;6.00;;;1.77;;
27013;SDS011;14556;52.222;4.510;2023-09-19T14:50:52;5.23;;;1.63;;
27013;SDS011;14556;52.222;4.510;2023-09-19T14:53:19;6.07;;;1.30;;
27013;SDS011;14556;52.222;4.510;2023-09-19T14:55:46;6.03;;;1.67;;
27013;SDS011;14556;52.222;4.510;2023-09-19T14:58:14;11.90;;;2.77;;
27013;SDS011;14556;52.222;4.510;2023-09-19T15:00:40;3.03;;;1.80;;
27013;SDS011;14556;52.222;4.510;2023-09-19T15:03:07;4.47;;;1.50;;
27013;SDS011;14556;52.222;4.510;2023-09-19T15:05:36;6.40;;;1.67;;
27013;SDS011;14556;52.222;4.510;2023-09-19T15:08:05;8.67;;;1.73;;
27013;SDS011;14556;52.222;4.510;2023-09-19T15:10:32;7.23;;;1.70;;
27013;SDS011;14556;52.222;4.510;2023-09-19T15:12:58;7.07;;;1.87;;
27013;SDS011;14556;52.222;4.510;2023-09-19T15:15:25;7.90;;;1.57;;
27013;SDS011;14556;52.222;4.510;2023-09-19T15:17:52;8.03;;;1.60;;
27013;SDS011;14556;52.222;4.510;2023-09-19T15:20:18;7.07;;;1.93;;
27013;SDS011;14556;52.222;4.510;2023-09-19T15:22:45;4.77;;;1.30;;
27013;SDS011;14556;52.222;4.510;2023-09-19T15:25:12;6.37;;;1.77;;
27013;SDS011;14556;52.222;4.510;2023-09-19T15:27:39;6.00;;;2.03;;
27013;SDS011;14556;52.222;4.510;2023-09-19T15:30:08;8.43;;;2.00;;
27013;SDS011;14556;52.222;4.510;2023-09-19T15:32:34;7.73;;;2.23;;
27013;SDS011;14556;52.222;4.510;2023-09-19T15:35:02;5.77;;;1.80;;
27013;SDS011;14556;52.222;4.510;2023-09-19T15:37:29;10.30;;;2.07;;
27013;SDS011;14556;52.222;4.510;2023-09-19T15:39:59;4.37;;;1.73;;
27013;SDS011;14556;52.222;4.510;2023-09-19T15:42:26;5.43;;;1.73;;
27013;SDS011;14556;52.222;4.510;2023-09-19T15:44:52;4.90;;;1.73;;
27013;SDS011;14556;52.222;4.510;2023-09-19T15:47:21;6.70;;;1.93;;
27013;SDS011;14556;52.222;4.510;2023-09-19T15:49:48;8.33;;;2.00;;
27013;SDS011;14556;52.222;4.510;2023-09-19T15:52:16;5.33;;;1.97;;
27013;SDS011;14556;52.222;4.510;2023-09-19T15:54:43;6.87;;;1.77;;
27013;SDS011;14556;52.222;4.510;2023-09-19T15:57:10;5.47;;;1.80;;